sensor_id;sensor_type;location;lat;lon;timestamp;pressure;altitude;pressure_sealevel;temperature;humidity
76680;BME280;65597;51.520;-0.224;2023-02-28T00:02:10;103236.96;;;7.95;33.25
76680;BME280;65597;51.520;-0.224;2023-02-28T00:04:36;103236.35;;;8.06;33.18
76680;BME280;65597;51.520;-0.224;2023-02-28T00:07:01;103241.85;;;8.07;33.25
76680;BME280;65597;51.520;-0.224;2023-02-28T00:09:27;103239.04;;;7.78;33.31
76680;BME280;65597;51.520;-0.224;2023-02-28T00:11:53;103236.54;;;7.94;33.42
76680;BME280;65597;51.520;-0.224;2023-02-28T00:14:18;103238.17;;;7.75;33.70
76680;BME280;65597;51.520;-0.224;2023-02-28T00:16:43;103243.23;;;7.63;33.98
76680;BME280;65597;51.520;-0.224;2023-02-28T00:19:09;103241.16;;;7.46;33.94
76680;BME280;65597;51.520;-0.224;2023-02-28T00:21:34;103241.84;;;7.85;33.74
76680;BME280;65597;51.520;-0.224;2023-02-28T00:24:00;103241.01;;;7.62;33.78
76680;BME280;65597;51.520;-0.224;2023-02-28T00:26:25;103239.01;;;7.91;33.77
76680;BME280;65597;51.520;-0.224;2023-02-28T00:28:52;103240.00;;;7.90;33.83
76680;BME280;65597;51.520;-0.224;2023-02-28T00:31:16;103234.96;;;7.95;33.82
76680;BME280;65597;51.520;-0.224;2023-02-28T00:33:42;103236.46;;;7.93;33.88
76680;BME280;65597;51.520;-0.224;2023-02-28T00:36:09;103237.86;;;7.85;34.01
76680;BME280;65597;51.520;-0.224;2023-02-28T00:38:33;103238.92;;;7.86;34.05
76680;BME280;65597;51.520;-0.224;2023-02-28T00:40:58;103242.22;;;7.65;34.06
76680;BME280;65597;51.520;-0.224;2023-02-28T00:43:24;103238.01;;;7.90;34.06
76680;BME280;65597;51.520;-0.224;2023-02-28T00:45:49;103235.53;;;7.82;34.23
76680;BME280;65597;51.520;-0.224;2023-02-28T00:48:16;103234.73;;;7.78;34.34
76680;BME280;65597;51.520;-0.224;2023-02-28T00:50:40;103232.60;;;7.74;34.41
76680;BME280;65597;51.520;-0.224;2023-02-28T00:53:06;103232.32;;;7.70;34.49
76680;BME280;65597;51.520;-0.224;2023-02-28T00:55:32;103229.87;;;7.63;34.65
76680;BME280;65597;51.520;-0.224;2023-02-28T00:57:57;103231.61;;;7.67;34.60
76680;BME280;65597;51.520;-0.224;2023-02-28T01:00:25;103236.96;;;7.36;34.99
76680;BME280;65597;51.520;-0.224;2023-02-28T01:02:48;103236.83;;;7.65;35.02
76680;BME280;65597;51.520;-0.224;2023-02-28T01:05:14;103237.91;;;7.48;34.95
76680;BME280;65597;51.520;-0.224;2023-02-28T01:07:39;103239.54;;;7.65;35.06
76680;BME280;65597;51.520;-0.224;2023-02-28T01:10:05;103239.20;;;7.47;35.04
76680;BME280;65597;51.520;-0.224;2023-02-28T01:12:30;103240.35;;;7.43;35.15
76680;BME280;65597;51.520;-0.224;2023-02-28T01:14:55;103241.30;;;7.47;35.09
76680;BME280;65597;51.520;-0.224;2023-02-28T01:17:21;103242.27;;;7.49;35.14
76680;BME280;65597;51.520;-0.224;2023-02-28T01:19:47;103240.99;;;7.40;35.24
76680;BME280;65597;51.520;-0.224;2023-02-28T01:22:12;103237.44;;;7.49;35.18
76680;BME280;65597;51.520;-0.224;2023-02-28T01:24:39;103240.63;;;7.67;35.24
76680;BME280;65597;51.520;-0.224;2023-02-28T01:27:03;103244.16;;;7.34;35.41
76680;BME280;65597;51.520;-0.224;2023-02-28T01:29:28;103243.73;;;7.32;35.45
76680;BME280;65597;51.520;-0.224;2023-02-28T01:31:53;103244.10;;;7.34;35.42
76680;BME280;65597;51.520;-0.224;2023-02-28T01:34:19;103243.87;;;7.53;35.47
76680;BME280;65597;51.520;-0.224;2023-02-28T01:36:46;103247.38;;;7.69;35.62
76680;BME280;65597;51.520;-0.224;2023-02-28T01:39:10;103248.99;;;7.27;35.55
76680;BME280;65597;51.520;-0.224;2023-02-28T01:41:35;103247.52;;;7.55;35.46
76680;BME280;65597;51.520;-0.224;2023-02-28T01:44:04;103245.74;;;7.67;35.60
76680;BME280;65597;51.520;-0.224;2023-02-28T01:46:26;103245.93;;;7.50;35.57
76680;BME280;65597;51.520;-0.224;2023-02-28T01:48:55;103246.26;;;7.43;35.64
76680;BME280;65597;51.520;-0.224;2023-02-28T01:51:21;103244.94;;;7.25;35.61
76680;BME280;65597;51.520;-0.224;2023-02-28T01:53:46;103242.18;;;7.64;35.87
76680;BME280;65597;51.520;-0.224;2023-02-28T01:56:10;103242.66;;;7.70;35.76
76680;BME280;65597;51.520;-0.224;2023-02-28T01:58:35;103243.66;;;7.32;35.87
76680;BME280;65597;51.520;-0.224;2023-02-28T02:01:01;103245.57;;;7.22;35.77
76680;BME280;65597;51.520;-0.224;2023-02-28T02:03:25;103242.52;;;7.09;35.95
76680;BME280;65597;51.520;-0.224;2023-02-28T02:05:51;103244.83;;;7.41;35.84
76680;BME280;65597;51.520;-0.224;2023-02-28T02:08:23;103246.54;;;7.21;35.80
76680;BME280;65597;51.520;-0.224;2023-02-28T02:10:44;103244.08;;;7.14;35.91
76680;BME280;65597;51.520;-0.224;2023-02-28T02:13:19;103245.62;;;7.21;35.84
76680;BME280;65597;51.520;-0.224;2023-02-28T02:15:38;103249.36;;;7.42;35.92
76680;BME280;65597;51.520;-0.224;2023-02-28T02:18:03;103250.81;;;7.17;35.96
76680;BME280;65597;51.520;-0.224;2023-02-28T02:20:38;103251.24;;;7.40;36.02
76680;BME280;65597;51.520;-0.224;2023-02-28T02:23:03;103248.01;;;7.41;35.97
76680;BME280;65597;51.520;-0.224;2023-02-28T02:25:22;103248.61;;;7.36;36.04
76680;BME280;65597;51.520;-0.224;2023-02-28T02:27:48;103244.92;;;7.59;36.01
76680;BME280;65597;51.520;-0.224;2023-02-28T02:35:01;103246.89;;;7.30;36.16
76680;BME280;65597;51.520;-0.224;2023-02-28T02:37:29;103248.28;;;7.33;36.25
76680;BME280;65597;51.520;-0.224;2023-02-28T02:39:51;103246.03;;;7.33;36.21
76680;BME280;65597;51.520;-0.224;2023-02-28T02:42:15;103247.88;;;7.51;36.31
76680;BME280;65597;51.520;-0.224;2023-02-28T02:44:42;103243.53;;;7.00;36.31
76680;BME280;65597;51.520;-0.224;2023-02-28T02:47:09;103247.27;;;7.26;36.34
76680;BME280;65597;51.520;-0.224;2023-02-28T02:49:32;103249.24;;;7.19;36.44
76680;BME280;65597;51.520;-0.224;2023-02-28T02:51:56;103246.94;;;7.01;36.37
76680;BME280;65597;51.520;-0.224;2023-02-28T02:54:23;103246.84;;;7.04;36.37
76680;BME280;65597;51.520;-0.224;2023-02-28T02:56:48;103247.17;;;7.29;36.38
76680;BME280;65597;51.520;-0.224;2023-02-28T02:59:15;103246.60;;;7.23;36.49
76680;BME280;65597;51.520;-0.224;2023-02-28T03:01:37;103243.87;;;7.47;36.52
76680;BME280;65597;51.520;-0.224;2023-02-28T03:04:05;103236.00;;;7.05;36.44
76680;BME280;65597;51.520;-0.224;2023-02-28T03:06:28;103233.85;;;7.27;36.46
76680;BME280;65597;51.520;-0.224;2023-02-28T03:08:53;103232.24;;;6.94;36.61
76680;BME280;65597;51.520;-0.224;2023-02-28T03:11:19;103231.85;;;7.23;36.50
76680;BME280;65597;51.520;-0.224;2023-02-28T03:13:55;103234.23;;;7.53;36.48
76680;BME280;65597;51.520;-0.224;2023-02-28T03:16:28;103233.37;;;7.33;36.39
76680;BME280;65597;51.520;-0.224;2023-02-28T03:18:40;103237.45;;;7.15;36.29
76680;BME280;65597;51.520;-0.224;2023-02-28T03:21:06;103235.71;;;7.68;36.19
76680;BME280;65597;51.520;-0.224;2023-02-28T03:23:33;103239.73;;;7.45;36.12
76680;BME280;65597;51.520;-0.224;2023-02-28T03:25:56;103239.37;;;7.50;36.01
76680;BME280;65597;51.520;-0.224;2023-02-28T03:28:25;103236.78;;;7.45;36.09
76680;BME280;65597;51.520;-0.224;2023-02-28T03:30:47;103240.41;;;7.23;36.04
76680;BME280;65597;51.520;-0.224;2023-02-28T03:33:11;103240.83;;;7.58;36.19
76680;BME280;65597;51.520;-0.224;2023-02-28T03:35:36;103240.32;;;7.27;35.95
76680;BME280;65597;51.520;-0.224;2023-02-28T03:38:04;103242.08;;;7.28;35.92
76680;BME280;65597;51.520;-0.224;2023-02-28T03:40:27;103244.83;;;7.39;36.11
76680;BME280;65597;51.520;-0.224;2023-02-28T03:42:55;103243.63;;;7.20;36.06
76680;BME280;65597;51.520;-0.224;2023-02-28T03:45:18;103247.21;;;7.20;36.06
76680;BME280;65597;51.520;-0.224;2023-02-28T03:47:45;103248.58;;;7.50;35.99
76680;BME280;65597;51.520;-0.224;2023-02-28T03:50:10;103253.48;;;7.50;36.00
76680;BME280;65597;51.520;-0.224;2023-02-28T03:52:36;103250.54;;;7.48;36.06
76680;BME280;65597;51.520;-0.224;2023-02-28T03:55:01;103251.62;;;7.32;35.95
76680;BME280;65597;51.520;-0.224;2023-02-28T03:57:30;103255.60;;;7.55;35.91
76680;BME280;65597;51.520;-0.224;2023-02-28T03:59:53;103258.25;;;7.21;35.99
76680;BME280;65597;51.520;-0.224;2023-02-28T04:02:14;103257.27;;;7.72;36.03
76680;BME280;65597;51.520;-0.224;2023-02-28T04:04:40;103255.73;;;7.22;36.05
76680;BME280;65597;51.520;-0.224;2023-02-28T04:07:07;103256.51;;;7.46;35.98
76680;BME280;65597;51.520;-0.224;2023-02-28T04:09:31;103256.75;;;7.69;35.99
76680;BME280;65597;51.520;-0.224;2023-02-28T04:11:57;103257.43;;;7.13;36.07
76680;BME280;65597;51.520;-0.224;2023-02-28T04:14:22;103258.58;;;7.12;36.01
76680;BME280;65597;51.520;-0.224;2023-02-28T04:16:47;103257.42;;;7.35;36.02
76680;BME280;65597;51.520;-0.224;2023-02-28T04:19:13;103257.18;;;7.34;36.00
76680;BME280;65597;51.520;-0.224;2023-02-28T04:21:40;103257.16;;;7.24;36.09
76680;BME280;65597;51.520;-0.224;2023-02-28T04:24:04;103254.60;;;7.25;36.02
76680;BME280;65597;51.520;-0.224;2023-02-28T04:26:30;103253.43;;;7.21;35.99
76680;BME280;65597;51.520;-0.224;2023-02-28T04:28:54;103258.47;;;6.99;35.95
76680;BME280;65597;51.520;-0.224;2023-02-28T04:31:20;103258.87;;;7.22;35.90
76680;BME280;65597;51.520;-0.224;2023-02-28T04:33:45;103263.20;;;7.18;35.95
76680;BME280;65597;51.520;-0.224;2023-02-28T04:36:11;103265.22;;;7.18;35.92
76680;BME280;65597;51.520;-0.224;2023-02-28T04:38:38;103264.73;;;6.94;35.94
76680;BME280;65597;51.520;-0.224;2023-02-28T04:41:02;103263.16;;;7.12;36.08
76680;BME280;65597;51.520;-0.224;2023-02-28T04:43:28;103264.02;;;7.36;36.06
76680;BME280;65597;51.520;-0.224;2023-02-28T04:45:53;103265.27;;;7.11;36.04
76680;BME280;65597;51.520;-0.224;2023-02-28T04:48:18;103264.74;;;7.33;36.08
76680;BME280;65597;51.520;-0.224;2023-02-28T04:50:44;103266.53;;;7.06;36.45
76680;BME280;65597;51.520;-0.224;2023-02-28T04:53:09;103265.41;;;7.13;36.43
76680;BME280;65597;51.520;-0.224;2023-02-28T04:55:34;103261.63;;;6.80;36.27
76680;BME280;65597;51.520;-0.224;2023-02-28T04:58:00;103264.65;;;7.07;36.15
76680;BME280;65597;51.520;-0.224;2023-02-28T05:00:25;103270.41;;;7.28;36.18
76680;BME280;65597;51.520;-0.224;2023-02-28T05:02:51;103269.03;;;7.18;36.05
76680;BME280;65597;51.520;-0.224;2023-02-28T05:05:21;103271.71;;;7.18;35.97
76680;BME280;65597;51.520;-0.224;2023-02-28T05:07:41;103271.96;;;7.18;35.92
76680;BME280;65597;51.520;-0.224;2023-02-28T05:10:09;103273.39;;;7.16;35.97
76680;BME280;65597;51.520;-0.224;2023-02-28T05:12:33;103273.95;;;7.06;36.15
76680;BME280;65597;51.520;-0.224;2023-02-28T05:14:58;103276.34;;;7.35;36.01
76680;BME280;65597;51.520;-0.224;2023-02-28T05:17:24;103276.99;;;7.31;36.09
76680;BME280;65597;51.520;-0.224;2023-02-28T05:19:50;103281.40;;;7.29;36.15
76680;BME280;65597;51.520;-0.224;2023-02-28T05:22:15;103283.41;;;6.83;36.18
76680;BME280;65597;51.520;-0.224;2023-02-28T05:24:40;103279.01;;;7.07;36.18
76680;BME280;65597;51.520;-0.224;2023-02-28T05:27:08;103281.50;;;7.30;36.23
76680;BME280;65597;51.520;-0.224;2023-02-28T05:29:31;103280.90;;;7.26;36.32
76680;BME280;65597;51.520;-0.224;2023-02-28T05:31:56;103279.65;;;6.97;36.32
76680;BME280;65597;51.520;-0.224;2023-02-28T05:34:22;103284.11;;;7.22;36.35
76680;BME280;65597;51.520;-0.224;2023-02-28T05:36:47;103287.74;;;7.24;36.25
76680;BME280;65597;51.520;-0.224;2023-02-28T05:39:15;103291.19;;;6.78;36.18
76680;BME280;65597;51.520;-0.224;2023-02-28T05:41:40;103294.60;;;6.99;36.26
76680;BME280;65597;51.520;-0.224;2023-02-28T05:44:04;103296.04;;;7.19;36.31
76680;BME280;65597;51.520;-0.224;2023-02-28T05:46:29;103296.99;;;7.25;36.26
76680;BME280;65597;51.520;-0.224;2023-02-28T05:48:55;103295.99;;;7.34;36.14
76680;BME280;65597;51.520;-0.224;2023-02-28T05:51:22;103297.86;;;7.10;36.21
76680;BME280;65597;51.520;-0.224;2023-02-28T05:53:46;103298.36;;;7.11;36.17
76680;BME280;65597;51.520;-0.224;2023-02-28T05:56:11;103302.47;;;7.18;36.53
76680;BME280;65597;51.520;-0.224;2023-02-28T05:58:37;103307.36;;;7.28;36.36
76680;BME280;65597;51.520;-0.224;2023-02-28T06:03:28;103312.09;;;7.17;36.18
76680;BME280;65597;51.520;-0.224;2023-02-28T06:05:53;103309.81;;;7.49;36.12
76680;BME280;65597;51.520;-0.224;2023-02-28T06:08:19;103311.77;;;7.16;36.23
76680;BME280;65597;51.520;-0.224;2023-02-28T06:10:44;103313.89;;;7.44;36.21
76680;BME280;65597;51.520;-0.224;2023-02-28T06:13:09;103315.36;;;7.32;36.36
76680;BME280;65597;51.520;-0.224;2023-02-28T06:15:35;103314.54;;;7.08;36.41
76680;BME280;65597;51.520;-0.224;2023-02-28T06:18:00;103315.23;;;7.17;36.26
76680;BME280;65597;51.520;-0.224;2023-02-28T06:20:27;103315.25;;;7.14;36.31
76680;BME280;65597;51.520;-0.224;2023-02-28T06:22:51;103308.79;;;7.36;36.34
76680;BME280;65597;51.520;-0.224;2023-02-28T06:25:17;103311.03;;;6.76;36.65
76680;BME280;65597;51.520;-0.224;2023-02-28T06:27:45;103318.05;;;6.86;36.60
76680;BME280;65597;51.520;-0.224;2023-02-28T06:30:10;103317.10;;;6.91;36.62
76680;BME280;65597;51.520;-0.224;2023-02-28T06:32:34;103314.12;;;7.50;36.43
76680;BME280;65597;51.520;-0.224;2023-02-28T06:34:59;103313.26;;;7.28;36.45
76680;BME280;65597;51.520;-0.224;2023-02-28T06:37:24;103314.57;;;7.09;36.39
76680;BME280;65597;51.520;-0.224;2023-02-28T06:39:51;103314.25;;;7.00;36.52
76680;BME280;65597;51.520;-0.224;2023-02-28T06:42:16;103312.41;;;7.37;36.44
76680;BME280;65597;51.520;-0.224;2023-02-28T06:44:41;103307.47;;;7.27;36.59
76680;BME280;65597;51.520;-0.224;2023-02-28T06:47:06;103308.31;;;7.51;36.61
76680;BME280;65597;51.520;-0.224;2023-02-28T06:49:34;103310.36;;;7.59;36.54
76680;BME280;65597;51.520;-0.224;2023-02-28T06:51:58;103310.34;;;7.44;36.49
76680;BME280;65597;51.520;-0.224;2023-02-28T06:54:22;103304.75;;;7.42;36.54
76680;BME280;65597;51.520;-0.224;2023-02-28T06:56:48;103307.43;;;7.42;36.54
76680;BME280;65597;51.520;-0.224;2023-02-28T06:59:14;103304.68;;;7.14;36.60
76680;BME280;65597;51.520;-0.224;2023-02-28T07:01:40;103307.68;;;7.13;36.62
76680;BME280;65597;51.520;-0.224;2023-02-28T07:04:05;103308.47;;;7.32;36.76
76680;BME280;65597;51.520;-0.224;2023-02-28T07:06:30;103307.57;;;7.44;36.66
76680;BME280;65597;51.520;-0.224;2023-02-28T07:08:55;103310.47;;;7.59;36.78
76680;BME280;65597;51.520;-0.224;2023-02-28T07:11:23;103313.85;;;7.68;36.70
76680;BME280;65597;51.520;-0.224;2023-02-28T07:13:47;103317.21;;;7.48;36.67
76680;BME280;65597;51.520;-0.224;2023-02-28T07:16:13;103318.70;;;7.49;36.65
76680;BME280;65597;51.520;-0.224;2023-02-28T07:18:38;103319.50;;;7.34;36.62
76680;BME280;65597;51.520;-0.224;2023-02-28T07:21:04;103320.68;;;7.40;36.51
76680;BME280;65597;51.520;-0.224;2023-02-28T07:23:29;103325.47;;;7.59;36.57
76680;BME280;65597;51.520;-0.224;2023-02-28T07:25:54;103327.39;;;7.44;36.46
76680;BME280;65597;51.520;-0.224;2023-02-28T07:28:19;103331.45;;;7.64;36.64
76680;BME280;65597;51.520;-0.224;2023-02-28T07:30:45;103329.42;;;7.84;36.70
76680;BME280;65597;51.520;-0.224;2023-02-28T07:33:10;103329.56;;;7.43;36.67
76680;BME280;65597;51.520;-0.224;2023-02-28T07:35:36;103329.79;;;7.57;36.85
76680;BME280;65597;51.520;-0.224;2023-02-28T07:38:02;103326.85;;;7.65;36.84
76680;BME280;65597;51.520;-0.224;2023-02-28T07:40:27;103325.26;;;7.46;36.82
76680;BME280;65597;51.520;-0.224;2023-02-28T07:42:52;103328.75;;;7.56;37.03
76680;BME280;65597;51.520;-0.224;2023-02-28T07:45:18;103325.21;;;7.86;37.02
76680;BME280;65597;51.520;-0.224;2023-02-28T07:47:43;103326.47;;;7.87;37.06
76680;BME280;65597;51.520;-0.224;2023-02-28T07:50:12;103327.38;;;7.63;37.06
76680;BME280;65597;51.520;-0.224;2023-02-28T07:52:36;103324.62;;;7.39;37.05
76680;BME280;65597;51.520;-0.224;2023-02-28T07:55:00;103324.68;;;7.32;37.42
76680;BME280;65597;51.520;-0.224;2023-02-28T07:57:26;103322.30;;;7.37;36.99
76680;BME280;65597;51.520;-0.224;2023-02-28T07:59:51;103329.79;;;7.33;37.08
76680;BME280;65597;51.520;-0.224;2023-02-28T08:02:18;103327.93;;;7.62;37.06
76680;BME280;65597;51.520;-0.224;2023-02-28T08:04:43;103332.76;;;7.87;37.09
76680;BME280;65597;51.520;-0.224;2023-02-28T08:07:08;103333.27;;;7.52;36.92
76680;BME280;65597;51.520;-0.224;2023-02-28T08:09:33;103331.56;;;7.49;37.15
76680;BME280;65597;51.520;-0.224;2023-02-28T08:11:59;103335.30;;;7.57;37.06
76680;BME280;65597;51.520;-0.224;2023-02-28T08:14:25;103336.67;;;7.63;37.00
76680;BME280;65597;51.520;-0.224;2023-02-28T08:16:51;103336.48;;;7.31;37.12
76680;BME280;65597;51.520;-0.224;2023-02-28T08:19:16;103337.87;;;7.76;37.14
76680;BME280;65597;51.520;-0.224;2023-02-28T08:21:41;103340.57;;;7.65;36.94
76680;BME280;65597;51.520;-0.224;2023-02-28T08:24:07;103342.23;;;7.70;37.06
76680;BME280;65597;51.520;-0.224;2023-02-28T08:26:32;103339.11;;;7.66;37.21
76680;BME280;65597;51.520;-0.224;2023-02-28T08:28:58;103338.54;;;7.73;36.93
76680;BME280;65597;51.520;-0.224;2023-02-28T08:31:23;103337.47;;;7.70;36.93
76680;BME280;65597;51.520;-0.224;2023-02-28T08:33:48;103335.62;;;7.47;37.05
76680;BME280;65597;51.520;-0.224;2023-02-28T08:36:14;103333.07;;;7.62;37.26
76680;BME280;65597;51.520;-0.224;2023-02-28T08:38:40;103336.68;;;7.76;37.22
76680;BME280;65597;51.520;-0.224;2023-02-28T08:41:09;103331.96;;;7.77;37.32
76680;BME280;65597;51.520;-0.224;2023-02-28T08:43:31;103336.29;;;7.57;37.27
76680;BME280;65597;51.520;-0.224;2023-02-28T08:45:56;103337.90;;;7.79;37.29
76680;BME280;65597;51.520;-0.224;2023-02-28T08:48:21;103337.04;;;7.74;37.52
76680;BME280;65597;51.520;-0.224;2023-02-28T08:50:55;103337.68;;;7.80;37.30
76680;BME280;65597;51.520;-0.224;2023-02-28T08:53:14;103336.37;;;7.84;37.30
76680;BME280;65597;51.520;-0.224;2023-02-28T08:55:38;103335.29;;;7.73;37.44
76680;BME280;65597;51.520;-0.224;2023-02-28T08:58:04;103333.77;;;7.76;37.45
76680;BME280;65597;51.520;-0.224;2023-02-28T09:00:29;103325.60;;;7.95;37.20
76680;BME280;65597;51.520;-0.224;2023-02-28T09:02:55;103328.64;;;8.01;37.15
76680;BME280;65597;51.520;-0.224;2023-02-28T09:05:20;103325.03;;;8.06;37.41
76680;BME280;65597;51.520;-0.224;2023-02-28T09:07:46;103322.45;;;7.94;37.32
76680;BME280;65597;51.520;-0.224;2023-02-28T09:10:11;103323.30;;;7.96;37.01
76680;BME280;65597;51.520;-0.224;2023-02-28T09:12:37;103322.99;;;7.70;36.97
76680;BME280;65597;51.520;-0.224;2023-02-28T09:15:04;103322.93;;;8.03;36.96
76680;BME280;65597;51.520;-0.224;2023-02-28T09:17:29;103321.16;;;8.01;37.07
76680;BME280;65597;51.520;-0.224;2023-02-28T09:19:54;103317.96;;;8.17;36.88
76680;BME280;65597;51.520;-0.224;2023-02-28T09:22:19;103316.11;;;7.86;37.12
76680;BME280;65597;51.520;-0.224;2023-02-28T09:24:45;103315.42;;;8.44;37.01
76680;BME280;65597;51.520;-0.224;2023-02-28T09:27:10;103315.74;;;7.84;37.27
76680;BME280;65597;51.520;-0.224;2023-02-28T09:29:37;103318.61;;;8.18;36.89
76680;BME280;65597;51.520;-0.224;2023-02-28T09:32:01;103315.73;;;8.22;36.81
76680;BME280;65597;51.520;-0.224;2023-02-28T09:34:27;103327.04;;;8.39;36.93
76680;BME280;65597;51.520;-0.224;2023-02-28T09:36:52;103322.03;;;7.92;37.37
76680;BME280;65597;51.520;-0.224;2023-02-28T09:39:17;103315.42;;;7.92;37.09
76680;BME280;65597;51.520;-0.224;2023-02-28T09:41:45;103320.52;;;8.00;37.43
76680;BME280;65597;51.520;-0.224;2023-02-28T09:44:13;103312.29;;;8.00;37.56
76680;BME280;65597;51.520;-0.224;2023-02-28T09:46:36;103308.01;;;8.01;37.19
76680;BME280;65597;51.520;-0.224;2023-02-28T09:49:01;103312.28;;;8.19;37.16
76680;BME280;65597;51.520;-0.224;2023-02-28T09:51:33;103305.19;;;8.32;37.07
76680;BME280;65597;51.520;-0.224;2023-02-28T09:53:53;103302.56;;;7.50;38.26
76680;BME280;65597;51.520;-0.224;2023-02-28T09:56:21;103301.77;;;8.49;37.59
76680;BME280;65597;51.520;-0.224;2023-02-28T09:58:46;103299.59;;;8.25;37.50
76680;BME280;65597;51.520;-0.224;2023-02-28T10:01:12;103297.34;;;8.43;37.53
76680;BME280;65597;51.520;-0.224;2023-02-28T10:03:36;103298.47;;;8.18;37.60
76680;BME280;65597;51.520;-0.224;2023-02-28T10:06:05;103300.93;;;8.36;37.29
76680;BME280;65597;51.520;-0.224;2023-02-28T10:08:26;103298.31;;;8.45;37.26
76680;BME280;65597;51.520;-0.224;2023-02-28T10:10:51;103299.51;;;8.13;37.80
76680;BME280;65597;51.520;-0.224;2023-02-28T10:13:21;103296.99;;;8.33;37.40
76680;BME280;65597;51.520;-0.224;2023-02-28T10:15:41;103305.88;;;8.44;37.34
76680;BME280;65597;51.520;-0.224;2023-02-28T10:18:11;103302.73;;;8.22;37.82
76680;BME280;65597;51.520;-0.224;2023-02-28T10:20:33;103307.95;;;8.66;37.43
76680;BME280;65597;51.520;-0.224;2023-02-28T10:22:59;103298.43;;;8.40;37.44
76680;BME280;65597;51.520;-0.224;2023-02-28T10:25:24;103300.64;;;8.25;37.22
76680;BME280;65597;51.520;-0.224;2023-02-28T10:27:49;103300.71;;;8.61;37.22
76680;BME280;65597;51.520;-0.224;2023-02-28T10:30:15;103297.89;;;8.44;37.63
76680;BME280;65597;51.520;-0.224;2023-02-28T10:32:40;103293.82;;;8.51;37.42
76680;BME280;65597;51.520;-0.224;2023-02-28T10:35:15;103291.32;;;8.50;37.62
76680;BME280;65597;51.520;-0.224;2023-02-28T10:37:30;103292.97;;;8.50;37.58
76680;BME280;65597;51.520;-0.224;2023-02-28T10:39:55;103291.84;;;8.45;40.49
76680;BME280;65597;51.520;-0.224;2023-02-28T10:42:25;103293.28;;;8.51;37.88
76680;BME280;65597;51.520;-0.224;2023-02-28T10:44:46;103290.00;;;8.59;37.68
76680;BME280;65597;51.520;-0.224;2023-02-28T10:47:14;103285.17;;;8.68;37.70
76680;BME280;65597;51.520;-0.224;2023-02-28T10:49:37;103282.52;;;8.67;37.77
76680;BME280;65597;51.520;-0.224;2023-02-28T10:52:03;103283.61;;;8.74;37.78
76680;BME280;65597;51.520;-0.224;2023-02-28T10:54:31;103285.22;;;8.54;37.87
76680;BME280;65597;51.520;-0.224;2023-02-28T10:57:05;103284.11;;;8.10;38.42
76680;BME280;65597;51.520;-0.224;2023-02-28T10:59:27;103278.91;;;8.59;38.50
76680;BME280;65597;51.520;-0.224;2023-02-28T11:01:46;103281.70;;;8.49;38.45
76680;BME280;65597;51.520;-0.224;2023-02-28T11:04:18;103281.31;;;8.36;38.87
76680;BME280;65597;51.520;-0.224;2023-02-28T11:06:36;103281.76;;;8.58;38.58
76680;BME280;65597;51.520;-0.224;2023-02-28T11:09:04;103277.75;;;8.40;39.05
76680;BME280;65597;51.520;-0.224;2023-02-28T11:11:28;103277.32;;;8.44;39.08
76680;BME280;65597;51.520;-0.224;2023-02-28T11:13:55;103274.58;;;8.05;39.63
76680;BME280;65597;51.520;-0.224;2023-02-28T11:16:18;103273.49;;;8.53;39.35
76680;BME280;65597;51.520;-0.224;2023-02-28T11:18:49;103269.27;;;8.27;39.40
76680;BME280;65597;51.520;-0.224;2023-02-28T11:21:16;103265.54;;;8.46;39.16
76680;BME280;65597;51.520;-0.224;2023-02-28T11:23:36;103261.33;;;8.48;39.11
76680;BME280;65597;51.520;-0.224;2023-02-28T11:26:02;103260.25;;;8.46;39.12
76680;BME280;65597;51.520;-0.224;2023-02-28T11:28:28;103253.70;;;8.68;38.90
76680;BME280;65597;51.520;-0.224;2023-02-28T11:31:00;103253.64;;;8.63;38.97
76680;BME280;65597;51.520;-0.224;2023-02-28T11:33:25;103250.24;;;8.14;39.69
76680;BME280;65597;51.520;-0.224;2023-02-28T11:35:42;103249.37;;;7.74;40.45
76680;BME280;65597;51.520;-0.224;2023-02-28T11:38:10;103245.37;;;7.99;40.82
76680;BME280;65597;51.520;-0.224;2023-02-28T11:40:42;103234.05;;;8.02;40.53
76680;BME280;65597;51.520;-0.224;2023-02-28T11:43:06;103219.19;;;8.05;40.57
76680;BME280;65597;51.520;-0.224;2023-02-28T11:45:37;103201.03;;;7.45;41.51
76680;BME280;65597;51.520;-0.224;2023-02-28T11:47:57;103190.33;;;8.38;40.84
76680;BME280;65597;51.520;-0.224;2023-02-28T11:50:22;103188.30;;;7.78;41.67
76680;BME280;65597;51.520;-0.224;2023-02-28T11:52:47;103195.48;;;7.91;40.91
76680;BME280;65597;51.520;-0.224;2023-02-28T11:55:15;103213.19;;;7.98;40.88
76680;BME280;65597;51.520;-0.224;2023-02-28T11:57:36;103227.45;;;7.94;41.27
76680;BME280;65597;51.520;-0.224;2023-02-28T12:00:04;103232.71;;;8.13;41.02
76680;BME280;65597;51.520;-0.224;2023-02-28T12:02:25;103234.10;;;8.20;40.92
76680;BME280;65597;51.520;-0.224;2023-02-28T12:04:55;103237.88;;;8.05;40.86
76680;BME280;65597;51.520;-0.224;2023-02-28T12:07:18;103231.26;;;8.22;40.63
76680;BME280;65597;51.520;-0.224;2023-02-28T12:09:45;103230.00;;;8.02;40.92
76680;BME280;65597;51.520;-0.224;2023-02-28T12:12:14;103222.56;;;8.09;41.16
76680;BME280;65597;51.520;-0.224;2023-02-28T12:14:46;103214.71;;;8.27;41.06
76680;BME280;65597;51.520;-0.224;2023-02-28T12:17:05;103204.39;;;8.28;41.35
76680;BME280;65597;51.520;-0.224;2023-02-28T12:19:25;103204.40;;;8.24;40.97
76680;BME280;65597;51.520;-0.224;2023-02-28T12:24:26;103201.23;;;8.27;40.60
76680;BME280;65597;51.520;-0.224;2023-02-28T12:26:39;103197.46;;;8.16;40.70
76680;BME280;65597;51.520;-0.224;2023-02-28T12:29:12;103192.70;;;8.55;40.43
76680;BME280;65597;51.520;-0.224;2023-02-28T12:31:34;103188.01;;;8.47;40.34
76680;BME280;65597;51.520;-0.224;2023-02-28T12:33:59;103179.85;;;8.56;40.18
76680;BME280;65597;51.520;-0.224;2023-02-28T12:36:20;103164.61;;;8.61;40.24
76680;BME280;65597;51.520;-0.224;2023-02-28T12:38:48;103151.31;;;8.59;40.40
76680;BME280;65597;51.520;-0.224;2023-02-28T12:41:14;103143.27;;;8.78;40.02
76680;BME280;65597;51.520;-0.224;2023-02-28T12:43:43;103134.20;;;8.34;40.36
76680;BME280;65597;51.520;-0.224;2023-02-28T12:46:08;103134.92;;;8.28;40.71
76680;BME280;65597;51.520;-0.224;2023-02-28T12:48:31;103127.68;;;8.51;41.63
76680;BME280;65597;51.520;-0.224;2023-02-28T12:50:53;103128.45;;;8.93;40.31